Fire Dart — FIRE — position and weather

sailwx.info

Track history (hours):
 
Tides and Currents Weather Stations Pressure Air Temp Water Temp Dewpoint Dewpoint Depression Visibility Wind Speed Wind Dir Waves Ship Positions

Fire Dart

Last reported at 2017-Sep-20 21:00 UTC. Time now 2017-Sep-21 01:25 UTC.
Position N 25°47' W 080°11'.

Length 14 m.

Type: High speed craft. MMSI: 235094361.

Date/timePositionNaut miles runAvg speedWind from/ knotsBaromVisibWave heightAir tempDewpointWater temp
2017-Sep-20 21:00N 25°47' W 080°11'0 0.2
2017-Sep-20 20:29N 25°47' W 080°11'0 0.1
2017-Sep-20 15:21N 25°47' W 080°11'0 0.9
2017-Sep-20 15:00N 25°47' W 080°11'3 3.2
2017-Sep-20 14:00N 25°50' W 080°10'1 2.9
2017-Sep-20 13:30N 25°51' W 080°09'0 0.4
2017-Sep-20 12:43N 25°51' W 080°09'413.4
2017-Sep-20 12:26N 25°48' W 080°11'1 1.8
2017-Sep-20 11:57N 25°47' W 080°11'0 0.0
2017-Sep-19 22:24N 25°47' W 080°11'4 9.8
2017-Sep-19 22:00N 25°43' W 080°13'1 1.3
2017-Sep-19 21:29N 25°44' W 080°14'0 0.5
2017-Sep-19 21:00N 25°44' W 080°14'0 0.5
2017-Sep-19 20:30N 25°43' W 080°14'5 9.2
2017-Sep-19 19:59N 25°41' W 080°10'3 6.3
2017-Sep-19 19:30N 25°44' W 080°10'3 6.8
2017-Sep-19 19:00N 25°47' W 080°11'0 0.1
2017-Sep-19 17:34N 25°47' W 080°11'0 0.0
2017-Sep-19 17:28N 25°47' W 080°11'0 0.0
2017-Sep-19 16:24N 25°47' W 080°11'0 1.2
2017-Sep-19 16:00N 25°47' W 080°11'0 0.9
2017-Sep-19 15:26N 25°47' W 080°11'0 0.0
2017-Sep-19 14:34N 25°47' W 080°11'0 0.1
2017-Sep-19 14:30N 25°47' W 080°11'0 0.0
2017-Sep-19 12:35N 25°47' W 080°11'0 0.0
2017-Sep-19 12:29N 25°47' W 080°11'0 0.0
2017-Sep-19 11:59N 25°47' W 080°11'0 0.0
2017-Sep-18 23:26N 25°47' W 080°11'0 0.0
2017-Sep-18 14:30N 25°47' W 080°11'0 0.0
2017-Sep-18 12:09N 25°47' W 080°11'0 0.0
2017-Sep-18 11:57N 25°47' W 080°11'0 0.0
2017-Sep-17 21:09N 25°47' W 080°11'1 4.4
2017-Sep-17 21:00N 25°47' W 080°11'2 4.6
2017-Sep-17 20:30N 25°45' W 080°11'2 0.2
2017-Sep-17 12:33N 25°47' W 080°11'0 0.0
2017-Sep-17 12:30N 25°47' W 080°11'0 0.0
2017-Sep-17 01:41N 25°47' W 080°11'1 3.6
2017-Sep-17 01:31N 25°47' W 080°11'1 0.1
2017-Sep-16 13:58N 25°47' W 080°11'0 0.0
2017-Sep-16 12:07N 25°47' W 080°11'0 0.0
2017-Sep-16 11:58N 25°47' W 080°11'0 0.0
2017-Sep-15 19:53N 25°47' W 080°11'0 0.0
2017-Sep-15 19:26N 25°47' W 080°11'0 0.0
2017-Sep-15 18:59N 25°47' W 080°11'0 0.0
2017-Sep-15 18:26N 25°47' W 080°11'0 0.0
2017-Sep-15 17:59N 25°47' W 080°11'0 0.0
2017-Sep-15 17:29N 25°47' W 080°11'2 3.9
2017-Sep-15 17:00N 25°45' W 080°11'2 3.0
2017-Sep-15 16:25N 25°44' W 080°13'0 0.2
2017-Sep-15 16:00N 25°44' W 080°13'3 1.4
2017-Sep-15 14:02N 25°47' W 080°11'0 0.0
2017-Sep-15 14:00N 25°47' W 080°11'0 0.0
2017-Sep-15 11:25N 25°47' W 080°11'0 0.0
2017-Sep-15 01:33N 25°47' W 080°11'0 0.0
2017-Sep-15 01:17N 25°47' W 080°11'0 0.0
2017-Sep-14 18:27N 25°47' W 080°11'2 5.3
2017-Sep-14 18:00N 25°46' W 080°09'2 1.3
2017-Sep-14 16:03N 25°47' W 080°11'0 3.9
2017-Sep-14 16:00N 25°47' W 080°11'2 3.3
2017-Sep-14 15:30N 25°47' W 080°09'1 1.1
2017-Sep-14 14:58N 25°47' W 080°09'2 0.1
2017-Sep-14 00:10N 25°47' W 080°11'0 0.0
2017-Sep-13 19:58N 25°47' W 080°11'1 1.7
2017-Sep-13 19:30N 25°47' W 080°10'2 3.4
2017-Sep-13 19:00N 25°47' W 080°09'2 4.1
2017-Sep-13 18:30N 25°47' W 080°11'0 0.1
2017-Sep-13 16:17N 25°47' W 080°11'1 3.0
2017-Sep-13 15:58N 25°46' W 080°12'2 2.3
2017-Sep-13 15:19N 25°47' W 080°14'1 3.8
2017-Sep-13 15:00N 25°47' W 080°12'1 0.4
2017-Sep-13 12:00N 25°47' W 080°11'0 0.0
2017-Sep-13 01:57N 25°47' W 080°11'0 0.0
2017-Sep-13 01:30N 25°47' W 080°11'0 0.0
2017-Sep-12 20:37N 25°47' W 080°11'1 8.5
2017-Sep-12 20:30N 25°46' W 080°11'1 1.8
2017-Sep-12 19:57N 25°47' W 080°11'0 0.0
2017-Sep-12 19:30N 25°47' W 080°11'0 0.0
2017-Sep-12 17:30N 25°47' W 080°11'0 0.0
2017-Sep-12 16:56N 25°47' W 080°11'1 1.2
2017-Sep-12 16:30N 25°46' W 080°11'1 1.0
2017-Sep-12 15:33N 25°46' W 080°12'0 1.4
2017-Sep-12 15:30N 25°46' W 080°12'1 0.9
2017-Sep-12 14:55N 25°47' W 080°13'0 0.0
2017-Sep-11 20:44N 25°47' W 080°13'0 2.1
2017-Sep-11 20:30N 25°47' W 080°13'0 0.0
2017-Sep-11 20:00N 25°47' W 080°12'0 0.0
2017-Sep-11 19:29N 25°47' W 080°12'0 0.0
2017-Sep-11 18:59N 25°47' W 080°12'0 0.0
2017-Sep-11 18:26N 25°47' W 080°12'0 0.0
2017-Sep-11 17:53N 25°47' W 080°12'0 0.0
2017-Sep-11 17:20N 25°47' W 080°12'  
Track history (hours):
 
Tides and Currents Weather Stations Pressure Air Temp Water Temp Dewpoint Dewpoint Depression Visibility Wind Speed Wind Dir Waves Ship Positions

Fire Dart

Last reported at 2017-Sep-20 21:00 UTC. Time now 2017-Sep-21 01:25 UTC.
Position N 25°47' W 080°11'.

Length 14 m.

Type: High speed craft. MMSI: 235094361.

Date/timePositionNaut miles runAvg speedWind from/ knotsBaromVisibWave heightAir tempDewpointWater temp
2017-Sep-20 21:00N 25°47' W 080°11'0 0.2
2017-Sep-20 20:29N 25°47' W 080°11'0 0.1
2017-Sep-20 15:21N 25°47' W 080°11'0 0.9
2017-Sep-20 15:00N 25°47' W 080°11'3 3.2
2017-Sep-20 14:00N 25°50' W 080°10'1 2.9
2017-Sep-20 13:30N 25°51' W 080°09'0 0.4
2017-Sep-20 12:43N 25°51' W 080°09'413.4
2017-Sep-20 12:26N 25°48' W 080°11'1 1.8
2017-Sep-20 11:57N 25°47' W 080°11'0 0.0
2017-Sep-19 22:24N 25°47' W 080°11'4 9.8
2017-Sep-19 22:00N 25°43' W 080°13'1 1.3
2017-Sep-19 21:29N 25°44' W 080°14'0 0.5
2017-Sep-19 21:00N 25°44' W 080°14'0 0.5
2017-Sep-19 20:30N 25°43' W 080°14'5 9.2
2017-Sep-19 19:59N 25°41' W 080°10'3 6.3
2017-Sep-19 19:30N 25°44' W 080°10'3 6.8
2017-Sep-19 19:00N 25°47' W 080°11'0 0.1
2017-Sep-19 17:34N 25°47' W 080°11'0 0.0
2017-Sep-19 17:28N 25°47' W 080°11'0 0.0
2017-Sep-19 16:24N 25°47' W 080°11'0 1.2
2017-Sep-19 16:00N 25°47' W 080°11'0 0.9
2017-Sep-19 15:26N 25°47' W 080°11'0 0.0
2017-Sep-19 14:34N 25°47' W 080°11'0 0.1
2017-Sep-19 14:30N 25°47' W 080°11'0 0.0
2017-Sep-19 12:35N 25°47' W 080°11'0 0.0
2017-Sep-19 12:29N 25°47' W 080°11'0 0.0
2017-Sep-19 11:59N 25°47' W 080°11'0 0.0
2017-Sep-18 23:26N 25°47' W 080°11'0 0.0
2017-Sep-18 14:30N 25°47' W 080°11'0 0.0
2017-Sep-18 12:09N 25°47' W 080°11'0 0.0
2017-Sep-18 11:57N 25°47' W 080°11'0 0.0
2017-Sep-17 21:09N 25°47' W 080°11'1 4.4
2017-Sep-17 21:00N 25°47' W 080°11'2 4.6
2017-Sep-17 20:30N 25°45' W 080°11'2 0.2
2017-Sep-17 12:33N 25°47' W 080°11'0 0.0
2017-Sep-17 12:30N 25°47' W 080°11'0 0.0
2017-Sep-17 01:41N 25°47' W 080°11'1 3.6
2017-Sep-17 01:31N 25°47' W 080°11'1 0.1
2017-Sep-16 13:58N 25°47' W 080°11'0 0.0
2017-Sep-16 12:07N 25°47' W 080°11'0 0.0
2017-Sep-16 11:58N 25°47' W 080°11'0 0.0
2017-Sep-15 19:53N 25°47' W 080°11'0 0.0
2017-Sep-15 19:26N 25°47' W 080°11'0 0.0
2017-Sep-15 18:59N 25°47' W 080°11'0 0.0
2017-Sep-15 18:26N 25°47' W 080°11'0 0.0
2017-Sep-15 17:59N 25°47' W 080°11'0 0.0
2017-Sep-15 17:29N 25°47' W 080°11'2 3.9
2017-Sep-15 17:00N 25°45' W 080°11'2 3.0
2017-Sep-15 16:25N 25°44' W 080°13'0 0.2
2017-Sep-15 16:00N 25°44' W 080°13'3 1.4
2017-Sep-15 14:02N 25°47' W 080°11'0 0.0
2017-Sep-15 14:00N 25°47' W 080°11'0 0.0
2017-Sep-15 11:25N 25°47' W 080°11'0 0.0
2017-Sep-15 01:33N 25°47' W 080°11'0 0.0
2017-Sep-15 01:17N 25°47' W 080°11'0 0.0
2017-Sep-14 18:27N 25°47' W 080°11'2 5.3
2017-Sep-14 18:00N 25°46' W 080°09'2 1.3
2017-Sep-14 16:03N 25°47' W 080°11'0 3.9
2017-Sep-14 16:00N 25°47' W 080°11'2 3.3
2017-Sep-14 15:30N 25°47' W 080°09'1 1.1
2017-Sep-14 14:58N 25°47' W 080°09'2 0.1
2017-Sep-14 00:10N 25°47' W 080°11'0 0.0
2017-Sep-13 19:58N 25°47' W 080°11'1 1.7
2017-Sep-13 19:30N 25°47' W 080°10'2 3.4
2017-Sep-13 19:00N 25°47' W 080°09'2 4.1
2017-Sep-13 18:30N 25°47' W 080°11'0 0.1
2017-Sep-13 16:17N 25°47' W 080°11'1 3.0
2017-Sep-13 15:58N 25°46' W 080°12'2 2.3
2017-Sep-13 15:19N 25°47' W 080°14'1 3.8
2017-Sep-13 15:00N 25°47' W 080°12'1 0.4
2017-Sep-13 12:00N 25°47' W 080°11'0 0.0
2017-Sep-13 01:57N 25°47' W 080°11'0 0.0
2017-Sep-13 01:30N 25°47' W 080°11'0 0.0
2017-Sep-12 20:37N 25°47' W 080°11'1 8.5
2017-Sep-12 20:30N 25°46' W 080°11'1 1.8
2017-Sep-12 19:57N 25°47' W 080°11'0 0.0
2017-Sep-12 19:30N 25°47' W 080°11'0 0.0
2017-Sep-12 17:30N 25°47' W 080°11'0 0.0
2017-Sep-12 16:56N 25°47' W 080°11'1 1.2
2017-Sep-12 16:30N 25°46' W 080°11'1 1.0
2017-Sep-12 15:33N 25°46' W 080°12'0 1.4
2017-Sep-12 15:30N 25°46' W 080°12'1 0.9
2017-Sep-12 14:55N 25°47' W 080°13'0 0.0
2017-Sep-11 20:44N 25°47' W 080°13'0 2.1
2017-Sep-11 20:30N 25°47' W 080°13'0 0.0
2017-Sep-11 20:00N 25°47' W 080°12'0 0.0
2017-Sep-11 19:29N 25°47' W 080°12'0 0.0
2017-Sep-11 18:59N 25°47' W 080°12'0 0.0
2017-Sep-11 18:26N 25°47' W 080°12'0 0.0
2017-Sep-11 17:53N 25°47' W 080°12'0 0.0
2017-Sep-11 17:20N 25°47' W 080°12'  

Dump ship's entire track history